Shelburne Falls, Massachusetts
Current Conditions -  °F | °C
As of 10:52 AM on Sunday 25 Jan 2015 (Local Time) from KORE Reporting Station
Overcast Overcast  
Wind Chill: 22°   Ceiling: 4300
Heat Index: 32°   Visibility: 10mi
Dew Point: 15°   Wind: 14mph
Humidity: 50%   Direction: 280°W
Pressure: 29.62"   Gusts: 25mph
Location:  42.6°N, 72.74°W
Report Text: KORE 251552Z AUTO 28012G22KT 10SM OVC043 00/M09 A2962 RMK AO2 SLP038 T00001094
Loading
Personal Weather Stations






























Interactive Weather Map New forecast layout! Learn more

10-Day Weather Forecast

Advertisements
Track Severe Weather on mobile